createdAt,value
2022-12-16T00:01:14.916Z,-8.25
2022-12-16T00:03:42.314Z,-7.98
2022-12-16T00:06:09.645Z,-8.41
2022-12-16T00:08:38.593Z,-7.94
2022-12-16T00:11:05.799Z,-7.93
2022-12-16T00:13:34.155Z,-8.11
2022-12-16T00:16:06.068Z,-8.13
2022-12-16T00:18:32.956Z,-7.92
2022-12-16T00:21:00.042Z,-8.35
2022-12-16T00:23:27.662Z,-8.35
2022-12-16T00:25:54.434Z,-8.31
2022-12-16T00:28:24.713Z,-8.19
2022-12-16T00:30:55.106Z,-8.47
2022-12-16T00:33:25.792Z,-8.75
2022-12-16T00:35:52.930Z,-8.61
2022-12-16T00:38:20.283Z,-8.62
2022-12-16T00:40:46.849Z,-8.44
2022-12-16T00:43:13.389Z,-8.14
2022-12-16T00:45:40.078Z,-8.42
2022-12-16T00:48:07.297Z,-8.43
2022-12-16T00:50:35.028Z,-8.29
2022-12-16T00:53:01.615Z,-8.18
2022-12-16T00:55:28.097Z,-8.02
2022-12-16T00:57:54.954Z,-8.12
2022-12-16T01:00:22.489Z,-8.22
2022-12-16T01:02:50.181Z,-7.88
2022-12-16T01:05:20.617Z,-8.01
2022-12-16T01:07:48.106Z,-8.61
2022-12-16T01:10:15.006Z,-8.96
2022-12-16T01:12:41.480Z,-8.48
2022-12-16T01:15:09.275Z,-8.23
2022-12-16T01:17:35.730Z,-8.53
2022-12-16T01:20:03.167Z,-9.30
2022-12-16T01:22:33.657Z,-8.79
2022-12-16T01:25:01.053Z,-8.24
2022-12-16T01:27:28.863Z,-8.40
2022-12-16T01:29:55.457Z,-8.30
2022-12-16T01:32:22.248Z,-8.28
2022-12-16T01:34:55.585Z,-8.39
2022-12-16T01:37:23.905Z,-9.01
2022-12-16T01:39:50.836Z,-8.93
2022-12-16T01:42:20.784Z,-8.89
2022-12-16T01:44:49.851Z,-8.83
2022-12-16T01:47:25.366Z,-8.86
2022-12-16T01:50:14.359Z,-8.53
2022-12-16T01:52:46.513Z,-8.50
2022-12-16T01:55:18.564Z,-8.32
2022-12-16T01:57:51.708Z,-8.57
2022-12-16T02:00:21.984Z,-8.88
2022-12-16T02:02:49.487Z,-8.83
2022-12-16T02:05:23.130Z,-8.81
2022-12-16T02:08:10.912Z,-8.44
2022-12-16T02:10:43.554Z,-8.41
2022-12-16T02:13:25.300Z,-8.64
2022-12-16T02:16:16.950Z,-8.88
2022-12-16T02:18:58.492Z,-8.47
2022-12-16T02:21:30.575Z,-8.59
2022-12-16T02:24:27.061Z,-8.33
2022-12-16T02:26:53.561Z,-8.54
2022-12-16T02:29:38.797Z,-8.33
2022-12-16T02:32:12.024Z,-8.61
2022-12-16T02:34:55.046Z,-8.35
2022-12-16T02:37:30.266Z,-8.62
2022-12-16T02:40:01.129Z,-8.41
2022-12-16T02:42:46.303Z,-8.58
2022-12-16T02:45:40.189Z,-8.46
2022-12-16T02:48:07.172Z,-8.59
2022-12-16T02:50:39.974Z,-8.87
2022-12-16T02:53:09.395Z,-8.51
2022-12-16T02:56:08.096Z,-8.70
2022-12-16T02:58:56.831Z,-8.59
2022-12-16T03:01:35.850Z,-9.02
2022-12-16T03:04:12.749Z,-8.67
2022-12-16T03:06:43.796Z,-8.89
2022-12-16T03:09:13.949Z,-8.66
2022-12-16T03:11:43.922Z,-8.78
2022-12-16T03:14:14.525Z,-8.92
2022-12-16T03:16:42.829Z,-8.85
2022-12-16T03:19:11.744Z,-8.77
2022-12-16T03:22:01.544Z,-8.92
2022-12-16T03:24:29.855Z,-8.74
2022-12-16T03:27:07.943Z,-8.84
2022-12-16T03:29:55.899Z,-9.12
2022-12-16T03:32:37.317Z,-9.24
2022-12-16T03:35:16.579Z,-9.05
2022-12-16T03:37:46.547Z,-9.43
2022-12-16T03:40:14.062Z,-9.73
2022-12-16T03:42:42.728Z,-9.75
2022-12-16T03:45:16.853Z,-9.79
2022-12-16T03:47:49.340Z,-9.78
2022-12-16T03:50:16.611Z,-9.82
2022-12-16T03:52:42.994Z,-9.63
2022-12-16T03:55:09.394Z,-9.60
2022-12-16T03:57:36.262Z,-9.96
2022-12-16T04:00:02.815Z,-9.84
2022-12-16T04:02:29.365Z,-9.91
2022-12-16T04:04:55.881Z,-9.78
2022-12-16T04:07:24.478Z,-9.02
2022-12-16T04:09:52.228Z,-9.28
2022-12-16T04:12:38.186Z,-9.26
2022-12-16T04:15:24.555Z,-9.18
2022-12-16T04:18:09.359Z,-8.95
2022-12-16T04:20:58.344Z,-9.29
2022-12-16T04:23:46.354Z,-8.77
2022-12-16T04:26:12.997Z,-9.26
2022-12-16T04:28:39.822Z,-9.00
2022-12-16T04:31:06.736Z,-8.98
2022-12-16T04:33:52.358Z,-8.68
2022-12-16T04:36:37.943Z,-8.82
2022-12-16T04:39:27.969Z,-8.73
2022-12-16T04:42:13.489Z,-8.58
2022-12-16T04:44:58.695Z,-8.74
2022-12-16T04:47:44.451Z,-9.02
2022-12-16T04:50:29.321Z,-8.79
2022-12-16T04:53:17.746Z,-8.85
2022-12-16T04:56:04.764Z,-8.93
2022-12-16T04:58:50.339Z,-8.79
2022-12-16T05:01:35.381Z,-8.71
2022-12-16T05:04:20.599Z,-8.71
2022-12-16T05:07:05.992Z,-8.49
2022-12-16T05:09:50.927Z,-8.57
2022-12-16T05:12:35.981Z,-8.57
2022-12-16T05:15:20.955Z,-8.28
2022-12-16T05:18:05.766Z,-8.38
2022-12-16T05:20:50.641Z,-8.41
2022-12-16T05:23:36.148Z,-8.77
2022-12-16T05:26:21.262Z,-8.67
2022-12-16T05:29:06.153Z,-8.58
2022-12-16T05:31:51.552Z,-8.72
2022-12-16T05:34:36.484Z,-8.48
2022-12-16T05:37:21.423Z,-8.39
2022-12-16T05:40:07.367Z,-8.34
2022-12-16T05:42:52.503Z,-8.10
2022-12-16T05:45:37.667Z,-7.94
2022-12-16T05:48:22.893Z,-7.77
2022-12-16T05:51:07.853Z,-7.92
2022-12-16T05:53:53.328Z,-8.30
2022-12-16T05:56:38.129Z,-7.57
2022-12-16T05:59:23.800Z,-7.63
2022-12-16T06:02:09.226Z,-7.14
2022-12-16T06:04:55.297Z,-7.08
2022-12-16T06:07:40.539Z,-7.11
2022-12-16T06:10:25.602Z,-6.90
2022-12-16T06:13:10.389Z,-7.24
2022-12-16T06:15:55.422Z,-6.93
2022-12-16T06:18:40.676Z,-7.04
2022-12-16T06:21:25.711Z,-6.99
2022-12-16T06:24:10.750Z,-6.86
2022-12-16T06:26:55.696Z,-6.66
2022-12-16T06:29:40.479Z,-6.45
2022-12-16T06:32:25.428Z,-6.50
2022-12-16T06:35:10.345Z,-6.49
2022-12-16T06:37:55.609Z,-6.51
2022-12-16T06:40:40.541Z,-6.45
2022-12-16T06:43:25.318Z,-6.55
2022-12-16T06:46:10.340Z,-6.63
2022-12-16T06:48:55.459Z,-6.67
2022-12-16T06:51:40.491Z,-6.67
2022-12-16T06:54:25.338Z,-6.61
2022-12-16T06:57:10.567Z,-6.60
2022-12-16T06:59:55.759Z,-6.42
2022-12-16T07:02:40.784Z,-5.96
2022-12-16T07:05:34.231Z,-6.15
2022-12-16T07:08:19.268Z,-6.20
2022-12-16T07:11:16.183Z,-6.29
2022-12-16T07:14:01.852Z,-6.02
2022-12-16T07:16:46.752Z,-6.10
2022-12-16T07:19:32.090Z,-5.98
2022-12-16T07:22:16.919Z,-6.33
2022-12-16T07:25:01.768Z,-6.26
2022-12-16T07:27:46.653Z,-6.29
2022-12-16T07:30:32.204Z,-6.28
2022-12-16T07:33:17.069Z,-6.18
2022-12-16T07:36:01.973Z,-6.11
2022-12-16T07:38:46.865Z,-5.97
2022-12-16T07:41:32.249Z,-5.85
2022-12-16T07:44:17.618Z,-5.71
2022-12-16T07:47:02.446Z,-5.30
2022-12-16T07:49:47.423Z,-5.44
2022-12-16T07:52:32.570Z,-5.34
2022-12-16T07:55:17.396Z,-4.83
2022-12-16T07:58:08.260Z,-5.15
2022-12-16T08:00:54.266Z,-5.18
2022-12-16T08:03:41.591Z,-5.05
2022-12-16T08:06:26.874Z,-4.82
2022-12-16T08:09:11.800Z,-4.86
2022-12-16T08:11:56.841Z,-4.66
2022-12-16T08:14:42.280Z,-4.70
2022-12-16T08:17:27.283Z,-4.50
2022-12-16T08:20:12.313Z,-4.47
2022-12-16T08:22:59.225Z,-4.80
2022-12-16T08:25:44.773Z,-4.47
2022-12-16T08:28:29.667Z,-4.20
2022-12-16T08:31:14.884Z,-4.29
2022-12-16T08:34:00.149Z,-4.14
2022-12-16T08:36:44.971Z,-4.33
2022-12-16T08:39:30.437Z,-4.29
2022-12-16T08:42:15.233Z,-4.29
2022-12-16T08:45:00.056Z,-4.24
2022-12-16T08:47:45.521Z,-4.33
2022-12-16T08:50:30.380Z,-3.88
2022-12-16T08:53:15.402Z,-3.89
2022-12-16T08:56:01.302Z,-4.06
2022-12-16T08:58:46.515Z,-4.06
2022-12-16T09:01:32.148Z,-3.70
2022-12-16T09:04:17.461Z,-3.88
2022-12-16T09:07:02.807Z,-3.83
2022-12-16T09:09:47.750Z,-3.48
2022-12-16T09:12:32.753Z,-3.63
2022-12-16T09:15:17.837Z,-3.73
2022-12-16T09:18:03.002Z,-3.26
2022-12-16T09:20:48.922Z,-3.40
2022-12-16T09:23:34.298Z,-3.34
2022-12-16T09:26:21.271Z,-3.55
2022-12-16T09:29:06.629Z,-3.66
2022-12-16T09:31:53.985Z,-3.39
2022-12-16T09:34:41.388Z,-3.36
2022-12-16T09:37:26.273Z,-3.23
2022-12-16T09:40:11.685Z,-3.13
2022-12-16T09:43:23.697Z,-3.13
2022-12-16T09:46:23.456Z,-2.96
2022-12-16T09:49:41.944Z,-3.27
2022-12-16T09:52:42.976Z,-3.35
2022-12-16T09:55:42.442Z,-2.98
2022-12-16T09:58:30.327Z,-2.92
2022-12-16T10:01:15.772Z,-2.63
2022-12-16T10:04:01.203Z,-2.77
2022-12-16T10:07:05.243Z,-2.70
2022-12-16T10:10:11.770Z,-2.68
2022-12-16T10:13:03.124Z,-2.59
2022-12-16T10:16:14.465Z,-2.97
2022-12-16T10:19:25.138Z,-2.68
2022-12-16T10:22:25.737Z,-2.71
2022-12-16T10:25:24.779Z,-2.73
2022-12-16T10:28:15.235Z,-2.82
2022-12-16T10:31:00.628Z,-2.85
2022-12-16T10:33:47.931Z,-2.64
2022-12-16T10:36:37.557Z,-2.87
2022-12-16T10:39:33.076Z,-2.82
2022-12-16T10:42:20.616Z,-2.83
2022-12-16T10:45:14.165Z,-2.72
2022-12-16T10:47:59.135Z,-2.61
2022-12-16T10:50:44.652Z,-2.62
2022-12-16T10:53:35.331Z,-2.82
2022-12-16T10:57:06.040Z,-2.23
2022-12-16T10:59:59.137Z,-1.71
2022-12-16T11:02:46.601Z,-2.02
2022-12-16T11:05:44.197Z,-1.96
2022-12-16T11:08:41.463Z,-1.76
2022-12-16T11:11:39.204Z,-2.28
2022-12-16T11:14:59.523Z,-2.10
2022-12-16T11:17:50.417Z,-2.08
2022-12-16T11:20:41.521Z,-1.84
2022-12-16T11:23:40.616Z,-1.69
2022-12-16T11:26:35.885Z,-2.28
2022-12-16T11:29:27.482Z,-1.66
2022-12-16T11:32:41.483Z,-1.59
2022-12-16T11:35:37.153Z,-1.29
2022-12-16T11:38:25.010Z,-1.83
2022-12-16T11:41:11.334Z,-1.45
2022-12-16T11:44:02.592Z,-1.85
2022-12-16T11:46:48.168Z,-1.75
2022-12-16T11:49:42.843Z,-1.78
2022-12-16T11:52:38.955Z,-1.44
2022-12-16T11:59:03.361Z,-1.76
2022-12-16T12:02:03.843Z,-1.50
2022-12-16T12:04:49.064Z,-1.22
2022-12-16T12:07:45.781Z,-1.62
2022-12-16T12:11:14.905Z,-1.35
2022-12-16T12:14:52.663Z,-1.85
2022-12-16T12:17:58.240Z,-1.38
2022-12-16T12:21:03.191Z,-1.45
2022-12-16T12:23:58.028Z,-1.65
2022-12-16T12:26:55.670Z,-1.44
2022-12-16T12:29:59.888Z,-1.09
2022-12-16T12:33:07.942Z,-1.04
2022-12-16T12:36:14.473Z,-1.52
2022-12-16T12:39:20.391Z,-1.37
2022-12-16T12:42:45.725Z,-0.97
2022-12-16T12:46:15.619Z,-0.85
2022-12-16T12:49:42.152Z,-0.56
2022-12-16T12:52:59.460Z,-1.06
2022-12-16T12:55:54.473Z,-1.40
2022-12-16T12:58:42.742Z,-1.31
2022-12-16T13:01:30.768Z,-1.76
2022-12-16T13:04:29.848Z,-1.63
2022-12-16T13:07:15.959Z,-1.56
2022-12-16T13:10:00.891Z,-1.93
2022-12-16T13:12:47.412Z,-1.03
2022-12-16T13:15:55.486Z,-0.65
2022-12-16T13:18:48.831Z,-0.81
2022-12-16T13:21:56.850Z,-0.32
2022-12-16T13:24:45.486Z,-0.13
2022-12-16T13:27:33.370Z,0.51
2022-12-16T13:30:36.590Z,1.08
2022-12-16T13:33:42.038Z,0.58
2022-12-16T13:36:28.966Z,0.99
2022-12-16T13:39:19.526Z,0.61
2022-12-16T13:42:08.173Z,0.10
2022-12-16T13:45:02.335Z,0.04
2022-12-16T13:48:13.160Z,0.58
2022-12-16T13:51:08.156Z,0.08
2022-12-16T13:54:01.308Z,-0.43
2022-12-16T13:56:56.494Z,-0.75
2022-12-16T13:59:46.454Z,-0.86
2022-12-16T14:02:51.980Z,-1.08
2022-12-16T14:05:41.370Z,-1.23
2022-12-16T14:08:35.980Z,-1.19
2022-12-16T14:11:36.671Z,-1.18
2022-12-16T14:14:39.929Z,-1.31
2022-12-16T14:17:35.935Z,-1.46
2022-12-16T14:20:25.806Z,-1.45
2022-12-16T14:23:55.479Z,-1.53
2022-12-16T14:26:35.856Z,-1.66
2022-12-16T14:29:22.477Z,-1.86
2022-12-16T14:32:07.793Z,-2.12
2022-12-16T14:34:55.170Z,-2.16
2022-12-16T14:37:40.553Z,-2.10
2022-12-16T14:40:41.993Z,-2.11
2022-12-16T14:43:42.435Z,-2.08
2022-12-16T14:46:45.882Z,-2.26
2022-12-16T14:49:39.439Z,-2.28
2022-12-16T14:52:36.715Z,-2.23
2022-12-16T14:55:44.940Z,-2.34
2022-12-16T14:58:34.423Z,-2.52
2022-12-16T15:01:31.195Z,-2.64
2022-12-16T15:04:18.034Z,-2.58
2022-12-16T15:07:06.881Z,-2.55
2022-12-16T15:10:06.729Z,-2.59
2022-12-16T15:12:57.550Z,-2.69
2022-12-16T15:15:58.267Z,-2.66
2022-12-16T15:18:50.595Z,-2.71
2022-12-16T15:21:36.404Z,-2.71
2022-12-16T15:24:35.402Z,-2.73
2022-12-16T15:27:40.037Z,-2.80
2022-12-16T15:30:59.635Z,-2.74
2022-12-16T15:34:19.530Z,-2.95
2022-12-16T15:37:05.210Z,-2.96
2022-12-16T15:40:00.856Z,-3.10
2022-12-16T15:42:47.874Z,-2.96
2022-12-16T15:45:36.044Z,-3.06
2022-12-16T15:48:36.553Z,-3.16
2022-12-16T15:51:22.167Z,-3.02
2022-12-16T15:54:21.692Z,-3.09
2022-12-16T15:57:06.844Z,-3.17
2022-12-16T15:59:57.581Z,-3.06
2022-12-16T16:02:54.494Z,-2.97
2022-12-16T16:05:43.662Z,-3.02
2022-12-16T16:08:31.940Z,-2.97
2022-12-16T16:11:16.770Z,-3.07
2022-12-16T16:14:07.184Z,-3.11
2022-12-16T16:16:54.628Z,-2.90
2022-12-16T16:19:44.956Z,-2.95
2022-12-16T16:22:32.303Z,-2.94
2022-12-16T16:25:17.854Z,-3.03
2022-12-16T16:28:02.716Z,-3.09
2022-12-16T16:30:51.197Z,-2.94
2022-12-16T16:33:36.486Z,-2.99
2022-12-16T16:36:32.392Z,-2.84
2022-12-16T16:39:17.153Z,-2.83
2022-12-16T16:42:01.984Z,-2.87
2022-12-16T16:44:46.821Z,-2.98
2022-12-16T16:47:35.828Z,-2.75
2022-12-16T16:50:21.128Z,-2.71
2022-12-16T16:53:06.509Z,-2.73
2022-12-16T16:55:51.464Z,-2.74
2022-12-16T16:58:46.643Z,-2.67
2022-12-16T17:01:33.835Z,-2.81
2022-12-16T17:04:19.428Z,-2.76
2022-12-16T17:07:04.822Z,-2.72
2022-12-16T17:09:50.018Z,-2.76
2022-12-16T17:12:44.275Z,-2.67
2022-12-16T17:15:37.644Z,-2.78
2022-12-16T17:18:24.273Z,-2.76
2022-12-16T17:21:10.054Z,-2.72
2022-12-16T17:23:55.670Z,-2.61
2022-12-16T17:26:41.686Z,-2.60
2022-12-16T17:29:36.128Z,-2.64
2022-12-16T17:32:20.998Z,-2.63
2022-12-16T17:35:05.963Z,-2.57
2022-12-16T17:37:50.781Z,-2.58
2022-12-16T17:40:36.178Z,-2.44
2022-12-16T17:43:22.162Z,-2.46
2022-12-16T17:46:30.361Z,-2.33
2022-12-16T17:49:17.036Z,-2.47
2022-12-16T17:52:02.436Z,-2.37
2022-12-16T17:54:47.733Z,-2.34
2022-12-16T17:57:33.190Z,-2.33
2022-12-16T18:00:19.215Z,-2.21
2022-12-16T18:03:05.393Z,-2.18
2022-12-16T18:05:50.807Z,-2.09
2022-12-16T18:08:35.617Z,-2.03
2022-12-16T18:11:20.860Z,-2.23
2022-12-16T18:14:06.247Z,-2.05
2022-12-16T18:16:51.418Z,-2.04
2022-12-16T18:19:36.872Z,-2.18
2022-12-16T18:22:22.610Z,-2.19
2022-12-16T18:25:11.082Z,-2.20
2022-12-16T18:28:11.504Z,-2.00
2022-12-16T18:30:56.451Z,-2.06
2022-12-16T18:33:41.968Z,-2.17
2022-12-16T18:36:27.816Z,-2.34
2022-12-16T18:39:12.721Z,-2.02
2022-12-16T18:42:06.703Z,-1.98
2022-12-16T18:44:57.606Z,-1.97
2022-12-16T18:47:45.712Z,-1.99
2022-12-16T18:50:37.233Z,-2.02
2022-12-16T18:53:24.111Z,-2.06
2022-12-16T18:56:23.198Z,-1.97
2022-12-16T18:59:08.245Z,-1.87
2022-12-16T19:01:53.221Z,-1.91
2022-12-16T19:04:38.239Z,-1.97
2022-12-16T19:07:24.581Z,-1.98
2022-12-16T19:10:10.137Z,-1.94
2022-12-16T19:12:55.500Z,-2.12
2022-12-16T19:15:41.700Z,-2.14
2022-12-16T19:18:27.337Z,-2.07
2022-12-16T19:21:12.984Z,-1.93
2022-12-16T19:23:58.461Z,-2.16
2022-12-16T19:26:43.229Z,-2.31
2022-12-16T19:29:28.015Z,-2.19
2022-12-16T19:32:13.027Z,-2.08
2022-12-16T19:34:58.186Z,-1.93
2022-12-16T19:37:46.938Z,-2.24
2022-12-16T19:40:32.273Z,-1.94
2022-12-16T19:43:17.527Z,-1.92
2022-12-16T19:46:02.514Z,-1.86
2022-12-16T19:48:47.579Z,-1.74
2022-12-16T19:51:32.838Z,-1.76
2022-12-16T19:54:17.741Z,-1.73
2022-12-16T19:57:03.405Z,-1.89
2022-12-16T19:59:48.275Z,-2.05
2022-12-16T20:02:33.394Z,-2.14
2022-12-16T20:05:18.465Z,-1.98
2022-12-16T20:08:03.388Z,-1.96
2022-12-16T20:10:48.925Z,-1.95
2022-12-16T20:13:33.804Z,-2.00
2022-12-16T20:16:31.658Z,-2.13
2022-12-16T20:19:17.276Z,-2.13
2022-12-16T20:22:06.844Z,-1.94
2022-12-16T20:25:07.746Z,-1.79
2022-12-16T20:27:52.787Z,-1.85
2022-12-16T20:30:38.710Z,-1.86
2022-12-16T20:33:23.631Z,-1.85
2022-12-16T20:36:17.695Z,-1.80
2022-12-16T20:39:03.011Z,-1.75
2022-12-16T20:41:47.944Z,-1.72
2022-12-16T20:44:32.621Z,-1.78
2022-12-16T20:47:18.633Z,-1.79
2022-12-16T20:50:04.009Z,-1.68
2022-12-16T20:52:49.228Z,-1.86
2022-12-16T20:55:34.697Z,-1.86
2022-12-16T20:58:19.582Z,-1.69
2022-12-16T21:01:04.509Z,-1.78
2022-12-16T21:03:49.405Z,-1.65
2022-12-16T21:06:54.091Z,-1.80
2022-12-16T21:09:41.329Z,-1.95
2022-12-16T21:12:25.980Z,-1.75
2022-12-16T21:15:10.922Z,-1.70
2022-12-16T21:17:56.136Z,-1.59
2022-12-16T21:20:41.138Z,-1.69
2022-12-16T21:23:28.676Z,-1.67
2022-12-16T21:26:13.519Z,-1.70
2022-12-16T21:29:00.223Z,-1.67
2022-12-16T21:31:45.729Z,-1.83
2022-12-16T21:34:31.011Z,-1.86
2022-12-16T21:37:16.361Z,-1.92
2022-12-16T21:40:01.505Z,-1.89
2022-12-16T21:42:46.384Z,-1.72
2022-12-16T21:45:31.695Z,-1.55
2022-12-16T21:48:16.555Z,-1.97
2022-12-16T21:51:01.521Z,-1.84
2022-12-16T21:53:46.774Z,-1.87
2022-12-16T21:56:32.428Z,-1.78
2022-12-16T21:59:17.204Z,-1.80
2022-12-16T22:02:04.798Z,-1.57
2022-12-16T22:04:50.084Z,-1.80
2022-12-16T22:07:35.046Z,-1.61
2022-12-16T22:10:20.031Z,-1.73
2022-12-16T22:13:04.850Z,-1.65
2022-12-16T22:15:49.939Z,-1.72
2022-12-16T22:18:35.798Z,-1.63
2022-12-16T22:21:23.911Z,-1.75
2022-12-16T22:24:09.367Z,-1.78
2022-12-16T22:26:54.670Z,-1.76
2022-12-16T22:29:41.790Z,-1.72
2022-12-16T22:32:26.999Z,-1.66
2022-12-16T22:35:12.389Z,-2.01
2022-12-16T22:37:57.539Z,-1.94
2022-12-16T22:40:42.316Z,-1.84
2022-12-16T22:43:27.041Z,-1.78
2022-12-16T22:46:19.749Z,-1.96
2022-12-16T22:49:05.822Z,-1.88
2022-12-16T22:51:51.884Z,-1.70
2022-12-16T22:54:36.886Z,-1.94
2022-12-16T22:57:21.676Z,-1.99
2022-12-16T23:00:06.739Z,-1.91
2022-12-16T23:02:51.593Z,-2.11
2022-12-16T23:05:36.971Z,-1.76
2022-12-16T23:08:21.874Z,-1.93
2022-12-16T23:11:18.105Z,-1.91
2022-12-16T23:14:03.468Z,-1.92
2022-12-16T23:16:48.893Z,-1.87
2022-12-16T23:19:33.736Z,-1.77
2022-12-16T23:22:18.535Z,-1.96
2022-12-16T23:25:03.432Z,-1.97
2022-12-16T23:27:48.187Z,-1.81
2022-12-16T23:30:33.718Z,-1.92
2022-12-16T23:33:20.915Z,-2.06
2022-12-16T23:36:06.325Z,-1.98
2022-12-16T23:38:51.269Z,-1.94
2022-12-16T23:41:49.065Z,-1.90
2022-12-16T23:44:34.056Z,-1.86
2022-12-16T23:47:19.011Z,-1.91
2022-12-16T23:50:05.656Z,-2.07
2022-12-16T23:52:51.184Z,-1.91
2022-12-16T23:55:36.253Z,-1.87
2022-12-16T23:58:23.864Z,-2.04
